Time;durP1;ratioP1;P1;durP2;ratioP2;P2;SDS_P1;SDS_P2;PMS_P1;PMS_P2;Temp;Humidity;BMP_temperature;BMP_pressure;BME280_temperature;BME280_humidity;BME280_pressure;Samples;Min_cycle;Max_cycle;Signal;HPM_P1;HPM_P2
2022/12/14 00:00:45;;;;;;;1999.90;999.90;;;5.70;99.90;;;;;;5055615;28;20021;-76
2022/12/14 00:03:12;;;;;;;1999.90;999.90;;;5.70;99.90;;;;;;5054924;28;20072;-76
2022/12/14 00:05:38;;;;;;;1999.90;999.90;;;5.80;99.90;;;;;;5055182;28;20530;-76
2022/12/14 00:08:04;;;;;;;1999.90;999.90;;;5.80;99.90;;;;;;5055116;28;20108;-74
2022/12/14 00:10:32;;;;;;;1999.90;999.90;;;5.80;99.90;;;;;;5055058;28;20025;-76
2022/12/14 00:12:57;;;;;;;1999.90;999.90;;;5.80;99.90;;;;;;5054921;28;20108;-77
2022/12/14 00:15:23;;;;;;;1999.90;999.90;;;5.80;99.90;;;;;;5054935;28;20056;-76
2022/12/14 00:17:49;;;;;;;1999.90;999.90;;;5.80;99.90;;;;;;5055175;28;20028;-76
2022/12/14 00:20:14;;;;;;;1999.90;999.90;;;5.80;99.90;;;;;;5054849;28;20488;-74
2022/12/14 00:22:40;;;;;;;1999.90;999.90;;;5.80;99.90;;;;;;5054135;28;20029;-75
2022/12/14 00:25:06;;;;;;;1999.90;999.90;;;5.80;99.90;;;;;;5054456;28;20411;-76
2022/12/14 00:27:31;;;;;;;1999.90;999.90;;;5.80;99.90;;;;;;5054843;28;20489;-76
2022/12/14 00:29:57;;;;;;;1999.90;999.90;;;5.80;99.90;;;;;;5054654;28;20068;-76
2022/12/14 00:32:23;;;;;;;1999.90;999.90;;;5.80;99.90;;;;;;5054871;28;20036;-76
2022/12/14 00:34:48;;;;;;;1999.90;999.90;;;5.80;99.90;;;;;;5042692;28;20071;-75
2022/12/14 00:37:14;;;;;;;1999.90;999.90;;;5.80;99.90;;;;;;5034753;28;20029;-75
2022/12/14 00:39:40;;;;;;;1999.90;999.90;;;5.80;99.90;;;;;;5033368;28;20382;-76
2022/12/14 00:42:06;;;;;;;1999.90;999.90;;;5.80;99.90;;;;;;5034042;28;20030;-76
2022/12/14 00:44:32;;;;;;;1999.90;999.90;;;5.90;99.90;;;;;;5038264;28;20021;-76
2022/12/14 00:46:57;;;;;;;1999.90;999.90;;;5.90;99.90;;;;;;5054832;28;20074;-75
2022/12/14 00:49:23;;;;;;;1999.90;999.90;;;5.90;99.90;;;;;;5054352;28;20443;-76
2022/12/14 00:51:49;;;;;;;1999.90;999.90;;;5.90;99.90;;;;;;5054331;28;20048;-76
2022/12/14 00:54:14;;;;;;;1999.90;999.90;;;5.90;99.90;;;;;;5054243;28;20400;-76
2022/12/14 00:56:40;;;;;;;1999.90;999.90;;;5.90;99.90;;;;;;5053686;28;20025;-75
2022/12/14 00:59:05;;;;;;;1999.90;999.90;;;5.90;99.90;;;;;;5054406;28;20116;-75
2022/12/14 01:01:31;;;;;;;1999.90;999.90;;;5.90;99.90;;;;;;5053632;28;20082;-75
2022/12/14 01:06:45;;;;;;;1999.90;999.90;;;6.00;99.90;;;;;;5054162;28;20047;-76
2022/12/14 01:09:11;;;;;;;1999.90;999.90;;;5.90;99.90;;;;;;5053397;28;20021;-77
2022/12/14 01:11:36;;;;;;;1999.90;999.90;;;6.00;99.90;;;;;;5053783;28;20025;-75
2022/12/14 01:14:03;;;;;;;1999.90;999.90;;;6.00;99.90;;;;;;5054011;28;20036;-74
2022/12/14 01:16:29;;;;;;;1999.90;999.90;;;6.00;99.90;;;;;;5053272;28;20058;-76
2022/12/14 01:18:54;;;;;;;1999.90;999.90;;;6.00;99.90;;;;;;5053939;28;20068;-77
2022/12/14 01:21:22;;;;;;;1999.90;999.90;;;6.10;99.90;;;;;;5053824;28;20025;-77
2022/12/14 01:23:52;;;;;;;1999.90;999.90;;;6.10;99.90;;;;;;5052486;28;20167;-77
2022/12/14 01:26:18;;;;;;;1999.90;999.90;;;6.10;99.90;;;;;;5053300;28;20017;-76
2022/12/14 01:28:51;;;;;;;1999.90;999.90;;;6.10;99.90;;;;;;5053969;28;20021;-76
2022/12/14 01:31:18;;;;;;;1999.90;999.90;;;6.10;99.90;;;;;;5053776;28;20021;-77
2022/12/14 01:33:45;;;;;;;1999.90;999.90;;;6.10;99.90;;;;;;5053277;28;20040;-77
2022/12/14 01:36:16;;;;;;;1999.90;999.90;;;6.20;99.90;;;;;;5053524;28;20396;-78
2022/12/14 01:38:42;;;;;;;1999.90;999.90;;;6.20;99.90;;;;;;5053779;28;20032;-78
2022/12/14 01:41:16;;;;;;;1999.90;999.90;;;6.20;99.90;;;;;;5035410;28;20021;-74
2022/12/14 01:43:49;;;;;;;1999.90;999.90;;;6.30;99.90;;;;;;5053344;28;20025;-77
2022/12/14 01:46:23;;;;;;;1999.90;999.90;;;6.30;99.90;;;;;;5053426;28;20472;-77
2022/12/14 01:48:51;;;;;;;1999.90;999.90;;;6.40;99.90;;;;;;5053389;28;20021;-76
2022/12/14 01:51:17;;;;;;;1999.90;999.90;;;6.50;99.90;;;;;;5053466;28;20063;-77
2022/12/14 01:53:43;;;;;;;1999.90;999.90;;;6.60;99.90;;;;;;5053144;28;20036;-77
2022/12/14 01:56:09;;;;;;;1999.90;999.90;;;6.60;99.90;;;;;;5052933;28;20025;-73
2022/12/14 01:58:34;;;;;;;1999.90;999.90;;;6.70;99.90;;;;;;5033479;28;20377;-77
2022/12/14 02:01:01;;;;;;;1999.90;999.90;;;6.80;99.90;;;;;;5033399;28;20025;-77
2022/12/14 02:03:30;;;;;;;1999.90;999.90;;;6.80;99.90;;;;;;5037222;28;20059;-77
2022/12/14 02:05:59;;;;;;;1999.90;999.90;;;6.80;99.90;;;;;;5053292;28;20033;-77
2022/12/14 02:08:27;;;;;;;1999.90;999.90;;;6.80;99.90;;;;;;5052421;28;20028;-76
2022/12/14 02:10:54;;;;;;;1999.90;999.90;;;6.90;99.90;;;;;;5053064;28;20017;-76
2022/12/14 02:13:30;;;;;;;1999.90;999.90;;;7.00;99.90;;;;;;5052909;28;20370;-77
2022/12/14 02:15:56;;;;;;;1999.90;999.90;;;7.00;99.90;;;;;;5052766;28;20087;-77
2022/12/14 02:18:28;;;;;;;1999.90;999.90;;;7.00;99.90;;;;;;5052889;28;20029;-78
2022/12/14 02:21:15;;;;;;;1999.90;999.90;;;7.00;99.90;;;;;;5053055;28;20077;-78
2022/12/14 02:24:18;;;;;;;1999.90;999.90;;;6.90;99.90;;;;;;5051756;28;20044;-78
2022/12/14 02:26:58;;;;;;;1999.90;999.90;;;6.90;99.90;;;;;;5052486;28;20070;-76
2022/12/14 02:29:57;;;;;;;1999.90;999.90;;;6.90;99.90;;;;;;5052555;28;20025;-75
2022/12/14 02:32:34;;;;;;;1999.90;999.90;;;6.90;99.90;;;;;;5052428;28;20021;-74
2022/12/14 02:35:18;;;;;;;1999.90;999.90;;;7.00;99.90;;;;;;5052524;28;20061;-74
2022/12/14 02:38:07;;;;;;;1999.90;999.90;;;7.00;99.90;;;;;;5052171;28;20563;-74
2022/12/14 02:40:52;;;;;;;1999.90;999.90;;;7.10;99.90;;;;;;5051986;28;20032;-74
2022/12/14 02:43:18;;;;;;;1999.90;999.90;;;7.10;99.90;;;;;;5052364;28;20082;-74
2022/12/14 02:45:57;;;;;;;1999.90;999.90;;;7.10;99.90;;;;;;5052574;28;20100;-75
2022/12/14 02:48:32;;;;;;;1999.90;999.90;;;7.10;99.90;;;;;;5052066;28;20031;-73
2022/12/14 02:51:36;;;;;;;1999.90;999.90;;;7.20;99.90;;;;;;5051159;28;20032;-73
2022/12/14 02:54:30;;;;;;;1999.90;999.90;;;7.30;99.90;;;;;;5051637;28;20103;-73
2022/12/14 02:57:08;;;;;;;1999.90;999.90;;;7.40;99.90;;;;;;5041612;28;20042;-74
2022/12/14 02:59:34;;;;;;;1999.90;999.90;;;7.50;99.90;;;;;;5031001;28;20060;-74
2022/12/14 03:02:02;;;;;;;1999.90;999.90;;;7.70;99.90;;;;;;5032159;28;20025;-74
2022/12/14 03:04:27;;;;;;;1999.90;999.90;;;7.90;99.90;;;;;;5044617;28;20524;-74
2022/12/14 03:07:20;;;;;;;1999.90;999.90;;;8.00;99.90;;;;;;5052128;28;20051;-73
2022/12/14 03:09:46;;;;;;;1999.90;999.90;;;8.00;99.90;;;;;;5052039;28;20014;-74
2022/12/14 03:12:13;;;;;;;1999.90;999.90;;;8.00;99.90;;;;;;5051566;28;20370;-74
2022/12/14 03:14:47;;;;;;;1999.90;999.90;;;8.10;99.90;;;;;;5052197;28;20021;-74
2022/12/14 03:17:26;;;;;;;1999.90;999.90;;;8.20;99.90;;;;;;5052001;28;20392;-74
2022/12/14 03:19:56;;;;;;;1999.90;999.90;;;8.30;99.90;;;;;;5053310;28;20023;-74
2022/12/14 03:22:44;;;;;;;1999.90;999.90;;;8.40;99.90;;;;;;5056228;28;20047;-75
2022/12/14 03:25:15;;;;;;;1999.90;999.90;;;8.40;99.90;;;;;;5054390;28;20048;-74
2022/12/14 03:27:52;;;;;;;1999.90;999.90;;;8.60;99.90;;;;;;5055848;28;20113;-75
2022/12/14 03:30:18;;;;;;;1999.90;999.90;;;8.90;99.90;;;;;;5055746;28;20029;-74
2022/12/14 03:32:49;;;;;;;1999.90;999.90;;;9.10;99.90;;;;;;5056145;28;20029;-75
2022/12/14 03:35:21;;;;;;;1999.90;999.90;;;9.10;99.90;;;;;;5055869;28;20025;-76
2022/12/14 03:37:58;;;;;;;1999.90;999.90;;;9.40;99.90;;;;;;5055866;28;20037;-75
2022/12/14 03:40:36;;;;;;;1999.90;999.90;;;9.50;99.90;;;;;;5054079;28;20408;-75
2022/12/14 03:43:07;;;;;;;1999.90;999.90;;;9.60;99.90;;;;;;5054463;28;20033;-76
2022/12/14 03:45:43;;;;;;;1999.90;999.90;;;9.60;99.90;;;;;;5055514;28;20028;-76
2022/12/14 03:48:09;;;;;;;1999.90;999.90;;;9.50;99.90;;;;;;5055038;28;20028;-76
2022/12/14 03:50:46;;;;;;;1999.90;999.90;;;9.50;99.90;;;;;;5055734;28;20025;-76
2022/12/14 03:53:37;;;;;;;1999.90;999.90;;;9.40;99.90;;;;;;5055799;28;20051;-76
2022/12/14 03:56:23;;;;;;;1999.90;999.90;;;9.40;99.90;;;;;;5053926;28;20151;-76
2022/12/14 03:59:00;;;;;;;1999.90;999.90;;;9.40;99.90;;;;;;5035500;28;20075;-77
2022/12/14 04:01:54;;;;;;;1999.90;999.90;;;9.30;99.90;;;;;;5035447;28;20078;-76
2022/12/14 04:04:29;;;;;;;1999.90;999.90;;;9.30;99.90;;;;;;5046610;28;20056;-77
2022/12/14 04:07:08;;;;;;;1999.90;999.90;;;9.30;99.90;;;;;;5055767;28;20013;-76
2022/12/14 04:09:47;;;;;;;1999.90;999.90;;;9.90;99.90;;;;;;5055363;28;20041;-77
2022/12/14 04:21:02;;;;;;;1999.90;999.90;;;10.30;99.90;;;;;;5055033;28;20085;-77
2022/12/14 04:26:23;;;;;;;1999.90;999.90;;;10.60;99.90;;;;;;5053984;28;20037;-77
2022/12/14 04:31:53;;;;;;;1999.90;999.90;;;10.50;99.90;;;;;;5054125;28;20550;-77
2022/12/14 04:34:23;;;;;;;1999.90;999.90;;;10.40;99.90;;;;;;5054673;28;20037;-76
2022/12/14 04:36:55;;;;;;;1999.90;999.90;;;10.40;99.90;;;;;;5054910;28;20056;-75
2022/12/14 04:40:07;;;;;;;1999.90;999.90;;;10.50;99.90;;;;;;5054913;28;20025;-75
2022/12/14 04:42:45;;;;;;;1999.90;999.90;;;10.50;99.90;;;;;;5043162;28;20488;-75
2022/12/14 04:45:18;;;;;;;1999.90;999.90;;;10.50;99.90;;;;;;5054548;28;20503;-77
2022/12/14 04:47:58;;;;;;;1999.90;999.90;;;10.50;99.90;;;;;;5054528;28;20075;-77
2022/12/14 04:50:36;;;;;;;1999.90;999.90;;;10.60;99.90;;;;;;5054331;28;20025;-75
2022/12/14 04:53:14;;;;;;;1999.90;999.90;;;10.50;99.90;;;;;;5054609;28;20029;-77
2022/12/14 04:55:51;;;;;;;1999.90;999.90;;;10.60;99.90;;;;;;5053999;28;20476;-77
2022/12/14 04:58:27;;;;;;;1999.90;999.90;;;10.50;99.90;;;;;;5054001;28;20078;-77
2022/12/14 05:01:03;;;;;;;1999.90;999.90;;;10.60;99.90;;;;;;5054676;28;20027;-77
2022/12/14 05:03:32;;;;;;;1999.90;999.90;;;10.60;99.90;;;;;;5053649;28;20088;-75
2022/12/14 05:06:15;;;;;;;1999.90;999.90;;;10.70;99.90;;;;;;5053996;28;20033;-77
2022/12/14 05:08:40;;;;;;;;;;;10.70;99.90;;;;;;5054592;28;20395;-77
2022/12/14 05:11:18;;;;;;;1999.90;999.90;;;10.70;99.90;;;;;;5053901;28;20012;-77
2022/12/14 05:13:49;;;;;;;1999.90;999.90;;;10.70;99.90;;;;;;5053700;28;20028;-77
2022/12/14 05:16:20;;;;;;;1999.90;999.90;;;10.60;99.90;;;;;;5053621;28;20055;-77
2022/12/14 05:18:46;;;;;;;1999.90;999.90;;;10.60;99.90;;;;;;5054270;28;20028;-77
2022/12/14 05:21:45;;;;;;;1999.90;999.90;;;10.90;99.90;;;;;;5054186;28;20074;-77
2022/12/14 05:24:02;;;;;;;1999.90;999.90;;;10.90;99.90;;;;;;5052946;28;20029;-77
2022/12/14 05:26:29;;;;;;;1999.90;999.90;;;11.10;99.90;;;;;;5052460;28;20032;-76
2022/12/14 05:28:55;;;;;;;1999.90;999.90;;;11.20;99.90;;;;;;5053810;28;20029;-77
2022/12/14 05:31:21;;;;;;;1999.90;999.90;;;11.30;99.90;;;;;;5053401;28;20075;-76
2022/12/14 05:33:47;;;;;;;1999.90;999.90;;;11.20;99.90;;;;;;5052896;28;20484;-76
2022/12/14 05:36:12;;;;;;;1999.90;999.90;;;11.20;99.90;;;;;;5038050;28;20032;-77
2022/12/14 05:38:38;;;;;;;1999.90;999.90;;;11.20;99.90;;;;;;5033824;28;20033;-76
2022/12/14 05:41:04;;;;;;;1999.90;999.90;;;11.30;99.90;;;;;;5033206;28;20551;-76
2022/12/14 05:43:29;;;;;;;1999.90;999.90;;;11.40;99.90;;;;;;5032216;28;20036;-76
2022/12/14 05:46:03;;;;;;;1999.90;999.90;;;11.40;99.90;;;;;;5048465;28;20041;-76
2022/12/14 05:48:29;;;;;;;1999.90;999.90;;;11.30;99.90;;;;;;5053185;28;20500;-76
2022/12/14 05:51:02;;;;;;;1999.90;999.90;;;11.30;99.90;;;;;;5053592;28;20384;-76
2022/12/14 05:53:28;;;;;;;;;;;11.30;99.90;;;;;;5053930;28;20392;-76
2022/12/14 05:55:53;;;;;;;1999.90;999.90;;;11.20;99.90;;;;;;5051044;28;19905;-76
2022/12/14 05:58:19;;;;;;;1999.90;999.90;;;11.20;99.90;;;;;;5052730;28;20571;-76
2022/12/14 06:00:44;;;;;;;1999.90;999.90;;;11.10;99.90;;;;;;5053269;28;20032;-76
2022/12/14 06:03:10;;;;;;;1999.90;999.90;;;11.10;99.90;;;;;;5052581;28;20456;-74
2022/12/14 06:05:36;;;;;;;1999.90;999.90;;;11.10;99.90;;;;;;5053216;28;20029;-76
2022/12/14 06:08:01;;;;;;;1999.90;999.90;;;11.20;99.90;;;;;;5052403;28;20391;-76
2022/12/14 06:10:27;;;;;;;1999.90;999.90;;;11.30;99.90;;;;;;5052564;28;20052;-76
2022/12/14 06:12:53;;;;;;;1999.90;999.90;;;11.40;99.90;;;;;;5052988;28;20024;-76
2022/12/14 06:15:18;;;;;;;1999.90;999.90;;;11.50;99.90;;;;;;5052596;28;20035;-76
2022/12/14 06:17:45;;;;;;;1999.90;999.90;;;11.50;99.90;;;;;;5052686;28;20024;-75
2022/12/14 06:20:12;;;;;;;1999.90;999.90;;;11.50;99.90;;;;;;5052347;28;20040;-74
2022/12/14 06:22:38;;;;;;;1999.90;999.90;;;11.60;99.90;;;;;;5052752;28;20051;-75
2022/12/14 06:25:04;;;;;;;1999.90;999.90;;;11.50;99.90;;;;;;5052283;28;20036;-74
2022/12/14 06:27:30;;;;;;;1999.90;999.90;;;11.50;99.90;;;;;;5051555;28;20492;-74
2022/12/14 06:29:56;;;;;;;1999.90;999.90;;;11.50;99.90;;;;;;5052319;28;20121;-75
2022/12/14 06:32:22;;;;;;;1999.90;999.90;;;11.50;99.90;;;;;;5052464;28;20400;-75
2022/12/14 06:34:47;;;;;;;1999.90;999.90;;;11.50;99.90;;;;;;5048861;28;20049;-74
2022/12/14 06:37:13;;;;;;;1999.90;999.90;;;11.40;99.90;;;;;;5032645;28;20447;-77
2022/12/14 06:39:39;;;;;;;1999.90;999.90;;;11.40;99.90;;;;;;5032331;28;20473;-76
2022/12/14 06:42:05;;;;;;;1999.90;999.90;;;11.40;99.90;;;;;;5031844;28;20033;-75
2022/12/14 06:44:30;;;;;;;1999.90;999.90;;;11.30;99.90;;;;;;5042217;28;20510;-75
2022/12/14 06:46:56;;;;;;;1999.90;999.90;;;11.30;99.90;;;;;;5051579;28;20025;-74
2022/12/14 06:49:22;;;;;;;1999.90;999.90;;;11.30;99.90;;;;;;5058958;28;20036;-75
2022/12/14 06:51:47;;;;;;;1999.90;999.90;;;11.40;99.90;;;;;;5051990;28;20035;-74
2022/12/14 06:54:14;;;;;;;1999.90;999.90;;;11.40;99.90;;;;;;5051264;28;20112;-76
2022/12/14 06:56:41;;;;;;;1999.90;999.90;;;11.50;99.90;;;;;;5051847;28;20108;-74
2022/12/14 06:59:08;;;;;;;1999.90;999.90;;;11.50;99.90;;;;;;5052091;28;20099;-74
2022/12/14 07:01:34;;;;;;;1999.90;999.90;;;11.50;99.90;;;;;;5051906;28;20036;-74
2022/12/14 07:04:00;;;;;;;1999.90;999.90;;;11.60;99.90;;;;;;5051140;28;20085;-76
2022/12/14 07:06:31;;;;;;;1999.90;999.90;;;11.60;99.90;;;;;;5058113;28;20102;-76
2022/12/14 07:08:58;;;;;;;1999.90;999.90;;;11.60;99.90;;;;;;5049617;28;20096;-76
2022/12/14 07:11:25;;;;;;;1999.90;999.90;;;11.70;99.90;;;;;;5051053;28;20032;-75
2022/12/14 07:13:52;;;;;;;1999.90;999.90;;;11.70;99.90;;;;;;5050000;28;20040;-76
2022/12/14 07:16:20;;;;;;;1999.90;999.90;;;11.70;99.90;;;;;;5050449;28;20397;-76
2022/12/14 07:18:46;;;;;;;1999.90;999.90;;;11.70;99.90;;;;;;5049853;28;20443;-75
2022/12/14 07:21:14;;;;;;;1999.90;999.90;;;11.70;99.90;;;;;;5047961;28;20080;-75
2022/12/14 07:23:41;;;;;;;1999.90;999.90;;;11.70;99.90;;;;;;5040164;28;20060;-75
2022/12/14 07:26:10;;;;;;;1999.90;999.90;;;11.70;99.90;;;;;;5044614;28;20535;-75
2022/12/14 07:28:37;;;;;;;1999.90;999.90;;;11.70;99.90;;;;;;5056762;28;20207;-75
2022/12/14 07:31:06;;;;;;;1999.90;999.90;;;11.60;99.90;;;;;;5055425;28;20481;-76
2022/12/14 07:33:32;;;;;;;1999.90;999.90;;;11.60;99.90;;;;;;5050400;28;20147;-74
2022/12/14 07:36:06;;;;;;;1999.90;999.90;;;11.50;99.90;;;;;;5054405;28;20381;-74
2022/12/14 07:38:33;;;;;;;1999.90;999.90;;;11.50;99.90;;;;;;5050953;28;20047;-74
2022/12/14 07:41:09;;;;;;;1999.90;999.90;;;11.60;99.90;;;;;;5050678;28;20033;-74
2022/12/14 07:43:36;;;;;;;1999.90;999.90;;;11.60;99.90;;;;;;5046171;28;20108;-76
2022/12/14 07:46:04;;;;;;;1999.90;999.90;;;11.60;99.90;;;;;;5049169;28;20078;-74
2022/12/14 07:48:30;;;;;;;1999.90;999.90;;;11.60;99.90;;;;;;5038062;28;20025;-75
2022/12/14 07:51:23;;;;;;;1999.90;999.90;;;11.60;99.90;;;;;;5037540;28;20373;-74
2022/12/14 07:53:50;;;;;;;1999.90;999.90;;;11.70;99.90;;;;;;5051972;28;20043;-74
2022/12/14 07:56:25;;;;;;;1999.90;999.90;;;11.70;99.90;;;;;;5048610;28;20444;-77
2022/12/14 07:58:51;;;;;;;1999.90;999.90;;;11.80;99.90;;;;;;5047733;28;20032;-74
2022/12/14 08:01:23;;;;;;;1999.90;999.90;;;11.80;99.90;;;;;;5045560;28;20504;-74
2022/12/14 08:03:51;;;;;;;1999.90;999.90;;;11.80;99.90;;;;;;5042298;28;20476;-73
2022/12/14 08:06:19;;;;;;;1999.90;999.90;;;11.80;99.90;;;;;;5044581;28;20120;-74
2022/12/14 08:08:45;;;;;;;1999.90;999.90;;;11.90;99.90;;;;;;5046428;28;20037;-74
2022/12/14 08:11:11;;;;;;;1999.90;999.90;;;11.90;99.90;;;;;;5047564;28;20044;-75
2022/12/14 08:13:42;;;;;;;1999.90;999.90;;;12.00;99.90;;;;;;5045520;28;20522;-73
2022/12/14 08:16:13;;;;;;;1999.90;999.90;;;12.10;99.90;;;;;;5046159;28;20569;-74
2022/12/14 08:18:39;;;;;;;1999.90;999.90;;;12.20;99.90;;;;;;5044425;28;20033;-74
2022/12/14 08:21:07;;;;;;;1999.90;999.90;;;12.30;99.90;;;;;;5050846;28;20403;-76
2022/12/14 08:23:33;;;;;;;1999.90;999.90;;;12.30;99.90;;;;;;5051158;28;20045;-75
2022/12/14 08:26:00;;;;;;;1999.90;999.90;;;12.30;99.90;;;;;;5048291;28;20103;-73
2022/12/14 08:28:27;;;;;;;1999.90;999.90;;;12.30;99.90;;;;;;5046540;28;20029;-74
2022/12/14 08:30:53;;;;;;;1999.90;999.90;;;12.30;99.90;;;;;;5050798;28;20017;-73
2022/12/14 08:33:20;;;;;;;1999.90;999.90;;;12.40;99.90;;;;;;5050127;28;21409;-73
2022/12/14 08:35:46;;;;;;;1999.90;999.90;;;12.40;99.90;;;;;;5049602;28;20586;-74
2022/12/14 08:38:12;;;;;;;1999.90;999.90;;;12.40;99.90;;;;;;5049686;28;20021;-74
2022/12/14 08:40:38;;;;;;;1999.90;999.90;;;12.40;99.90;;;;;;5048708;28;20033;-74
2022/12/14 08:43:05;;;;;;;1999.90;999.90;;;12.40;99.90;;;;;;5052182;28;20052;-74
2022/12/14 08:45:31;;;;;;;1999.90;999.90;;;12.40;99.90;;;;;;5040761;28;20381;-74
2022/12/14 08:47:57;;;;;;;1999.90;999.90;;;12.40;99.90;;;;;;5049511;28;20035;-74
2022/12/14 08:50:24;;;;;;;1999.90;999.90;;;12.50;99.90;;;;;;5050813;28;20033;-75
2022/12/14 08:52:50;;;;;;;1999.90;999.90;;;12.60;99.90;;;;;;5067876;28;20028;-73
2022/12/14 08:55:15;;;;;;;1999.90;999.90;;;12.70;99.90;;;;;;5070788;28;20165;-73
2022/12/14 08:57:41;;;;;;;1999.90;999.90;;;12.60;99.90;;;;;;5071020;28;20102;-73
2022/12/14 09:00:10;;;;;;;1999.90;999.90;;;12.70;99.90;;;;;;5061636;28;20060;-76
2022/12/14 09:02:36;;;;;;;1999.90;999.90;;;12.70;99.90;;;;;;5049903;28;21119;-73
2022/12/14 09:05:03;;;;;;;1999.90;999.90;;;12.70;99.90;;;;;;5050684;28;20037;-73
2022/12/14 09:07:29;;;;;;;1999.90;999.90;;;12.80;99.90;;;;;;5041847;28;20500;-73
2022/12/14 09:09:55;;;;;;;1999.90;999.90;;;12.80;99.90;;;;;;5065799;28;20131;-73
2022/12/14 09:12:20;;;;;;;1999.90;999.90;;;13.00;99.90;;;;;;5053663;28;20021;-73
2022/12/14 09:14:48;;;;;;;1999.90;999.90;;;13.00;99.90;;;;;;5057228;28;20091;-73
2022/12/14 09:17:14;;;;;;;1999.90;999.90;;;13.10;99.90;;;;;;5050964;28;20082;-74
2022/12/14 09:19:40;;;;;;;1999.90;999.90;;;13.10;99.90;;;;;;5043518;28;20030;-74
2022/12/14 09:22:06;;;;;;;1999.90;999.90;;;13.10;99.90;;;;;;5040084;28;20705;-73
2022/12/14 09:24:31;;;;;;;1999.90;999.90;;;13.10;99.90;;;;;;5048387;28;20568;-74
2022/12/14 09:27:01;;;;;;;1999.90;999.90;;;13.20;99.90;;;;;;5052565;28;20728;-75
2022/12/14 09:29:28;;;;;;;1999.90;999.90;;;13.20;99.90;;;;;;5050331;28;20021;-74
2022/12/14 09:31:54;;;;;;;1999.90;999.90;;;13.20;99.90;;;;;;5050663;28;20021;-73
2022/12/14 09:34:20;;;;;;;1999.90;999.90;;;13.30;99.90;;;;;;5049443;28;20051;-74
2022/12/14 09:36:47;;;;;;;1999.90;999.90;;;13.20;99.90;;;;;;5039143;28;20263;-76
2022/12/14 09:39:13;;;;;;;1999.90;999.90;;;13.20;99.90;;;;;;5043323;28;20027;-77
2022/12/14 09:42:08;;;;;;;1999.90;999.90;;;13.20;99.90;;;;;;5042580;28;20029;-78
2022/12/14 09:44:58;;;;;;;1999.90;999.90;;;13.20;99.90;;;;;;5046817;28;20029;-74
2022/12/14 09:47:34;;;;;;;1999.90;999.90;;;13.30;99.90;;;;;;5056216;28;20025;-75
2022/12/14 09:50:05;;;;;;;1999.90;999.90;;;13.30;99.90;;;;;;5048566;28;20032;-75
2022/12/14 09:52:43;;;;;;;1999.90;999.90;;;13.40;99.90;;;;;;5048170;28;20028;-74
2022/12/14 09:55:33;;;;;;;1999.90;999.90;;;13.50;99.90;;;;;;5049218;28;20032;-76
2022/12/14 09:58:30;;;;;;;1999.90;999.90;;;13.50;99.90;;;;;;5057117;28;20044;-74
2022/12/14 10:01:23;;;;;;;1999.90;999.90;;;13.50;99.90;;;;;;5061698;28;20143;-74
2022/12/14 10:04:24;;;;;;;1999.90;999.90;;;13.50;99.90;;;;;;5046107;28;20048;-74
2022/12/14 10:06:49;;;;;;;1999.90;999.90;;;13.50;99.90;;;;;;5020905;28;20571;-76
2022/12/14 10:09:27;;;;;;;1999.90;999.90;;;13.50;99.90;;;;;;5043827;28;20021;-77
2022/12/14 10:12:01;;;;;;;1999.90;999.90;;;13.80;99.90;;;;;;5043717;28;20021;-74
2022/12/14 10:15:08;;;;;;;1999.90;999.90;;;13.80;99.90;;;;;;5050545;28;20029;-74
2022/12/14 10:17:39;;;;;;;1999.90;999.90;;;13.70;99.90;;;;;;5043180;28;20049;-74
2022/12/14 10:20:20;;;;;;;1999.90;999.90;;;13.80;99.90;;;;;;5047231;28;20055;-78
2022/12/14 10:22:50;;;;;;;1999.90;999.90;;;13.70;99.90;;;;;;5046748;28;20086;-74
2022/12/14 10:25:17;;;;;;;1999.90;999.90;;;13.70;99.90;;;;;;5041968;28;20024;-74
2022/12/14 10:27:55;;;;;;;1999.90;999.90;;;13.80;99.90;;;;;;5045307;28;20139;-74
2022/12/14 10:30:21;;;;;;;1999.90;999.90;;;13.80;99.90;;;;;;5049567;28;20029;-74
2022/12/14 10:33:12;;;;;;;1999.90;999.90;;;13.90;99.90;;;;;;5049033;28;20044;-77
2022/12/14 10:36:13;;;;;;;1999.90;999.90;;;13.90;99.90;;;;;;5049294;28;20110;-77
2022/12/14 10:38:38;;;;;;;1999.90;999.90;;;14.00;99.90;;;;;;5045283;28;20045;-74
2022/12/14 10:41:40;;;;;;;1999.90;999.90;;;14.00;99.90;;;;;;5046482;28;20491;-74
2022/12/14 10:44:29;;;;;;;1999.90;999.90;;;13.80;99.90;;;;;;5064439;28;20025;-77
2022/12/14 10:47:03;;;;;;;1999.90;999.90;;;13.80;99.90;;;;;;5047109;28;20108;-76
2022/12/14 10:49:48;;;;;;;1999.90;999.90;;;13.80;99.90;;;;;;5046954;28;20120;-74
2022/12/14 10:52:20;;;;;;;1999.90;999.90;;;13.80;99.90;;;;;;5048476;28;20020;-74
2022/12/14 10:54:53;;;;;;;1999.90;999.90;;;13.90;99.90;;;;;;5045717;28;20051;-74
2022/12/14 10:57:28;;;;;;;1999.90;999.90;;;14.20;99.90;;;;;;5043224;28;20035;-77
2022/12/14 10:59:54;;;;;;;1999.90;999.90;;;14.20;99.90;;;;;;5049825;28;20036;-77
2022/12/14 11:02:22;;;;;;;1999.90;999.90;;;14.10;99.90;;;;;;5046050;28;20029;-75
2022/12/14 11:04:48;;;;;;;1999.90;999.90;;;14.00;99.90;;;;;;5047022;28;20048;-74
2022/12/14 11:07:15;;;;;;;1999.90;999.90;;;14.00;99.90;;;;;;5052407;28;20557;-74
2022/12/14 11:09:42;;;;;;;1999.90;999.90;;;13.90;99.90;;;;;;5048590;28;20026;-74
2022/12/14 11:12:21;;;;;;;1999.90;999.90;;;13.90;99.90;;;;;;5044987;28;20112;-76
2022/12/14 11:15:02;;;;;;;1999.90;999.90;;;13.80;99.90;;;;;;5049922;28;20075;-74
2022/12/14 11:17:38;;;;;;;1999.90;999.90;;;13.60;99.90;;;;;;5044479;28;20156;-76
2022/12/14 11:20:04;;;;;;;1999.90;999.90;;;13.70;99.90;;;;;;5046511;28;20033;-76
2022/12/14 11:22:52;;;;;;;1999.90;999.90;;;13.80;99.90;;;;;;5046453;28;20182;-77
2022/12/14 11:25:39;;;;;;;1999.90;999.90;;;13.90;99.90;;;;;;5044328;28;20029;-74
2022/12/14 11:28:26;;;;;;;1999.90;999.90;;;14.40;99.90;;;;;;5046003;28;20024;-74
2022/12/14 11:31:02;;;;;;;1999.90;999.90;;;14.60;99.90;;;;;;5047547;28;20025;-74
2022/12/14 11:33:36;;;;;;;1999.90;999.90;;;14.50;99.90;;;;;;5047221;28;20056;-74
2022/12/14 11:36:02;;;;;;;1999.90;999.90;;;14.30;99.90;;;;;;5045975;28;20540;-75
2022/12/14 11:38:30;;;;;;;1999.90;999.90;;;14.20;99.90;;;;;;5047120;28;20079;-74
2022/12/14 11:40:57;;;;;;;1999.90;999.90;;;14.10;99.90;;;;;;5048080;28;20017;-75
2022/12/14 11:43:30;;;;;;;1999.90;999.90;;;14.20;99.90;;;;;;5048331;28;20017;-74
2022/12/14 11:45:57;;;;;;;1999.90;999.90;;;14.30;99.90;;;;;;5047415;28;20063;-74
2022/12/14 11:48:27;;;;;;;1999.90;999.90;;;14.40;99.90;;;;;;5050121;28;20098;-74
2022/12/14 11:51:07;;;;;;;1999.90;999.90;;;14.30;99.90;;;;;;5049909;28;20017;-74
2022/12/14 11:53:32;;;;;;;1999.90;999.90;;;14.30;99.90;;;;;;5046108;28;20041;-76
2022/12/14 11:56:00;;;;;;;1999.90;999.90;;;14.30;99.90;;;;;;5049706;28;20029;-74
2022/12/14 11:58:45;;;;;;;1999.90;999.90;;;14.20;99.90;;;;;;5053609;28;20083;-74
2022/12/14 12:01:15;;;;;;;1999.90;999.90;;;13.90;99.90;;;;;;5050142;28;20033;-74
2022/12/14 12:03:47;;;;;;;1999.90;999.90;;;13.70;99.90;;;;;;5054214;28;20045;-80
2022/12/14 12:06:19;;;;;;;1999.90;999.90;;;13.60;99.90;;;;;;5051837;28;20033;-80
2022/12/14 12:08:45;;;;;;;1999.90;999.90;;;13.60;99.90;;;;;;5054412;28;20048;-74
2022/12/14 12:11:21;;;;;;;1999.90;999.90;;;13.60;99.90;;;;;;5052843;28;20110;-74
2022/12/14 12:13:51;;;;;;;1999.90;999.90;;;13.70;99.90;;;;;;5052056;28;20432;-74
2022/12/14 12:16:22;;;;;;;1999.90;999.90;;;13.60;99.90;;;;;;5053625;28;20032;-78
2022/12/14 12:19:40;;;;;;;1999.90;999.90;;;13.60;99.90;;;;;;5049487;28;20031;-77
2022/12/14 12:22:09;;;;;;;1999.90;999.90;;;13.60;99.90;;;;;;5024360;28;20033;-74
2022/12/14 12:24:42;;;;;;;1999.90;999.90;;;13.50;99.90;;;;;;5028557;28;20025;-74
2022/12/14 12:27:12;;;;;;;1999.90;999.90;;;13.50;99.90;;;;;;5030485;28;20044;-74
2022/12/14 12:29:40;;;;;;;1999.90;999.90;;;13.50;99.90;;;;;;5028599;28;20029;-74
2022/12/14 12:32:09;;;;;;;1999.90;999.90;;;13.50;99.90;;;;;;5031240;28;20543;-78
2022/12/14 12:34:55;;;;;;;1999.90;999.90;;;13.60;99.90;;;;;;5030263;28;20042;-74
2022/12/14 12:37:32;;;;;;;1999.90;999.90;;;13.60;99.90;;;;;;5025956;28;20496;-74
2022/12/14 12:40:21;;;;;;;1999.90;999.90;;;13.80;99.90;;;;;;5030186;28;20053;-74
2022/12/14 12:42:56;;;;;;;1999.90;999.90;;;14.10;99.90;;;;;;5026119;28;20087;-75